Time;durP1;ratioP1;P1;durP2;ratioP2;P2;SDS_P1;SDS_P2;PMS_P1;PMS_P2;Temp;Humidity;BMP_temperature;BMP_pressure;BME280_temperature;BME280_humidity;BME280_pressure;Samples;Min_cycle;Max_cycle;Signal;HPM_P1;HPM_P2
2022/02/17 00:01:56;;;;;;;18.90;4.70;;;;;;;;;;5052321;28;20181;-69
2022/02/17 00:04:21;;;;;;;14.83;3.90;;;;;;;;;;5052640;28;20252;-69
2022/02/17 00:06:46;;;;;;;13.40;3.10;;;;;;;;;;5055575;28;20200;-71
2022/02/17 00:09:11;;;;;;;13.23;4.07;;;;;;;;;;5047935;28;20205;-69
2022/02/17 00:11:41;;;;;;;14.57;3.10;;;;;;;;;;5050847;28;20195;-68
2022/02/17 00:14:06;;;;;;;15.03;3.07;;;;;;;;;;5055795;28;20611;-68
2022/02/17 00:16:31;;;;;;;12.23;3.00;;;;;;;;;;5051651;28;20239;-69
2022/02/17 00:18:56;;;;;;;16.60;4.10;;;;;;;;;;5036254;28;20181;-71
2022/02/17 00:21:22;;;;;;;12.37;3.50;;;;;;;;;;5054000;28;20200;-69
2022/02/17 00:23:47;;;;;;;19.23;3.67;;;;;;;;;;5053471;28;20466;-71
2022/02/17 00:26:12;;;;;;;16.70;4.40;;;;;;;;;;5054344;28;20173;-70
2022/02/17 00:28:37;;;;;;;20.27;5.63;;;;;;;;;;5054133;28;20205;-70
2022/02/17 00:31:02;;;;;;;18.50;4.07;;;;;;;;;;5051663;28;20547;-69
2022/02/17 00:33:28;;;;;;;15.23;3.67;;;;;;;;;;5055858;28;20198;-69
2022/02/17 00:35:53;;;;;;;16.00;3.53;;;;;;;;;;5055038;28;20614;-71
2022/02/17 00:38:18;;;;;;;16.47;4.37;;;;;;;;;;5057439;28;20302;-70
2022/02/17 00:40:43;;;;;;;21.53;5.30;;;;;;;;;;5052421;28;20181;-69
2022/02/17 00:43:08;;;;;;;19.40;5.17;;;;;;;;;;5048534;28;20220;-70
2022/02/17 00:45:34;;;;;;;9.40;2.70;;;;;;;;;;5051398;28;20185;-69
2022/02/17 00:47:59;;;;;;;5.40;1.53;;;;;;;;;;5034371;28;20691;-71
2022/02/17 00:50:24;;;;;;;7.40;2.53;;;;;;;;;;5032934;28;20231;-70
2022/02/17 00:52:49;;;;;;;9.83;2.13;;;;;;;;;;5052380;28;20569;-70
2022/02/17 00:55:15;;;;;;;9.27;2.60;;;;;;;;;;5052228;28;20204;-71
2022/02/17 00:57:40;;;;;;;9.20;2.53;;;;;;;;;;5051891;28;20244;-71
2022/02/17 01:00:06;;;;;;;8.17;1.70;;;;;;;;;;5051869;28;20185;-70
2022/02/17 01:02:31;;;;;;;8.37;2.00;;;;;;;;;;5053360;28;20209;-71
2022/02/17 01:04:56;;;;;;;8.27;2.53;;;;;;;;;;5052030;28;20181;-71
2022/02/17 01:07:21;;;;;;;8.97;2.93;;;;;;;;;;5053736;28;20197;-71
2022/02/17 01:09:46;;;;;;;10.83;2.30;;;;;;;;;;5051609;28;20174;-71
2022/02/17 01:12:12;;;;;;;10.30;2.30;;;;;;;;;;5052460;28;22084;-71
2022/02/17 01:14:37;;;;;;;9.30;2.00;;;;;;;;;;5050814;28;20280;-71
2022/02/17 01:17:02;;;;;;;12.73;3.10;;;;;;;;;;5049387;28;20304;-70
2022/02/17 01:19:27;;;;;;;19.47;5.53;;;;;;;;;;5033342;28;20252;-71
2022/02/17 01:21:53;;;;;;;25.53;5.53;;;;;;;;;;5051656;28;20170;-70
2022/02/17 01:24:18;;;;;;;22.93;5.00;;;;;;;;;;5051043;28;20651;-70
2022/02/17 01:26:43;;;;;;;14.90;4.00;;;;;;;;;;5027926;28;20185;-72
2022/02/17 01:29:09;;;;;;;20.53;3.90;;;;;;;;;;5051254;28;20658;-71
2022/02/17 01:31:34;;;;;;;23.33;5.13;;;;;;;;;;5049843;28;20626;-72
2022/02/17 01:34:00;;;;;;;19.27;4.03;;;;;;;;;;5050041;28;20221;-69
2022/02/17 01:36:25;;;;;;;17.53;3.77;;;;;;;;;;5052959;28;20169;-70
2022/02/17 01:38:50;;;;;;;17.03;5.03;;;;;;;;;;5054451;28;20550;-70
2022/02/17 01:41:16;;;;;;;20.63;3.83;;;;;;;;;;5054211;28;20185;-69
2022/02/17 01:43:41;;;;;;;19.37;4.57;;;;;;;;;;5051503;28;20462;-70
2022/02/17 01:46:07;;;;;;;19.40;5.10;;;;;;;;;;5042288;28;20186;-69
2022/02/17 01:48:32;;;;;;;17.50;3.80;;;;;;;;;;5053750;28;20205;-70
2022/02/17 01:50:58;;;;;;;20.03;4.00;;;;;;;;;;5054014;28;20267;-70
2022/02/17 01:53:23;;;;;;;28.67;4.37;;;;;;;;;;5035849;28;20619;-71
2022/02/17 01:55:49;;;;;;;14.37;4.27;;;;;;;;;;5053316;28;20435;-70
2022/02/17 01:58:15;;;;;;;22.03;4.40;;;;;;;;;;5053579;28;20219;-69
2022/02/17 02:00:41;;;;;;;17.63;3.67;;;;;;;;;;5035446;28;20186;-71
2022/02/17 02:03:07;;;;;;;13.10;2.57;;;;;;;;;;5052697;28;20201;-70
2022/02/17 02:05:32;;;;;;;14.83;4.27;;;;;;;;;;5050326;28;20177;-70
2022/02/17 02:07:57;;;;;;;15.30;3.63;;;;;;;;;;5052804;28;20205;-69
2022/02/17 02:10:23;;;;;;;15.20;3.03;;;;;;;;;;5053330;28;20702;-70
2022/02/17 02:12:48;;;;;;;14.40;3.20;;;;;;;;;;5053802;28;20316;-70
2022/02/17 02:15:14;;;;;;;12.93;3.33;;;;;;;;;;5053306;28;20177;-70
2022/02/17 02:17:40;;;;;;;15.97;4.40;;;;;;;;;;5053975;28;20311;-69
2022/02/17 02:20:07;;;;;;;19.03;4.27;;;;;;;;;;5054254;28;20173;-69
2022/02/17 02:22:32;;;;;;;11.20;2.53;;;;;;;;;;5056255;22;20654;-71
2022/02/17 02:25:01;;;;;;;20.70;3.97;;;;;;;;;;5050425;28;20220;-70
2022/02/17 02:27:28;;;;;;;15.97;3.90;;;;;;;;;;5051364;28;20217;-69
2022/02/17 02:29:53;;;;;;;17.83;3.50;;;;;;;;;;5031920;28;20562;-69
2022/02/17 02:32:18;;;;;;;15.73;3.07;;;;;;;;;;5049181;28;20201;-70
2022/02/17 02:34:44;;;;;;;14.23;2.87;;;;;;;;;;5047136;28;20177;-69
2022/02/17 02:37:09;;;;;;;7.57;1.90;;;;;;;;;;5046513;28;20170;-69
2022/02/17 02:39:35;;;;;;;15.73;3.50;;;;;;;;;;5045920;28;20173;-70
2022/02/17 02:42:00;;;;;;;12.03;2.90;;;;;;;;;;5054312;28;20227;-70
2022/02/17 02:44:26;;;;;;;17.47;4.10;;;;;;;;;;5046093;28;20562;-70
2022/02/17 02:46:51;;;;;;;12.33;3.97;;;;;;;;;;5049419;28;20165;-70
2022/02/17 02:49:17;;;;;;;18.33;4.00;;;;;;;;;;5049033;28;20344;-70
2022/02/17 02:51:42;;;;;;;18.23;3.50;;;;;;;;;;5047411;28;20824;-70
2022/02/17 02:54:07;;;;;;;19.37;4.67;;;;;;;;;;5046760;28;20764;-70
2022/02/17 02:56:33;;;;;;;10.97;2.57;;;;;;;;;;5049940;28;20706;-70
2022/02/17 02:58:59;;;;;;;23.30;4.47;;;;;;;;;;5050726;28;20527;-70
2022/02/17 03:01:24;;;;;;;14.57;2.80;;;;;;;;;;5049289;28;20217;-69
2022/02/17 03:03:49;;;;;;;14.83;3.70;;;;;;;;;;5046554;28;20214;-68
2022/02/17 03:06:15;;;;;;;15.50;4.10;;;;;;;;;;5049619;28;20488;-69
2022/02/17 03:08:40;;;;;;;18.07;3.33;;;;;;;;;;5047214;28;20201;-68
2022/02/17 03:11:05;;;;;;;18.23;3.43;;;;;;;;;;5046760;28;20204;-69
2022/02/17 03:13:31;;;;;;;12.10;2.93;;;;;;;;;;5046427;28;20194;-69
2022/02/17 03:15:56;;;;;;;5.00;2.30;;;;;;;;;;5045507;28;20178;-69
2022/02/17 03:18:21;;;;;;;15.30;3.17;;;;;;;;;;5046343;28;20174;-69
2022/02/17 03:20:46;;;;;;;11.80;3.67;;;;;;;;;;5030438;28;20712;-69
2022/02/17 03:23:12;;;;;;;11.23;2.70;;;;;;;;;;5034333;28;20629;-68
2022/02/17 03:25:37;;;;;;;16.03;3.80;;;;;;;;;;5035093;28;20178;-68
2022/02/17 03:28:02;;;;;;;13.03;3.63;;;;;;;;;;5037180;28;20683;-69
2022/02/17 03:30:27;;;;;;;13.20;4.07;;;;;;;;;;5044670;28;20185;-68
2022/02/17 03:32:53;;;;;;;19.10;3.80;;;;;;;;;;5044103;28;20190;-69
2022/02/17 03:35:18;;;;;;;16.63;3.30;;;;;;;;;;5045952;28;20239;-69
2022/02/17 03:37:43;;;;;;;19.80;3.47;;;;;;;;;;5047115;28;20177;-69
2022/02/17 03:40:08;;;;;;;16.73;3.83;;;;;;;;;;5033873;28;20239;-68
2022/02/17 03:42:34;;;;;;;12.27;3.13;;;;;;;;;;5032496;28;20212;-68
2022/02/17 03:44:59;;;;;;;18.57;4.23;;;;;;;;;;5046971;28;20181;-70
2022/02/17 03:47:24;;;;;;;22.10;4.10;;;;;;;;;;5054454;28;20201;-70
2022/02/17 03:49:49;;;;;;;13.90;4.03;;;;;;;;;;5051279;28;20281;-70
2022/02/17 03:52:14;;;;;;;17.80;4.90;;;;;;;;;;5051716;28;20201;-69
2022/02/17 03:54:39;;;;;;;22.03;3.93;;;;;;;;;;5050271;28;20228;-70
2022/02/17 03:57:05;;;;;;;15.77;3.83;;;;;;;;;;5049293;28;20713;-69
2022/02/17 03:59:30;;;;;;;17.13;3.47;;;;;;;;;;5053448;28;20253;-69
2022/02/17 04:01:55;;;;;;;23.67;4.23;;;;;;;;;;5030409;28;20658;-69
2022/02/17 04:04:20;;;;;;;14.00;5.30;;;;;;;;;;5051657;28;20178;-69
2022/02/17 04:06:45;;;;;;;26.20;4.07;;;;;;;;;;5031783;28;20552;-69
2022/02/17 04:09:11;;;;;;;12.20;3.00;;;;;;;;;;5048610;28;20552;-69
2022/02/17 04:11:36;;;;;;;18.43;3.57;;;;;;;;;;5050498;28;20534;-68
2022/02/17 04:14:01;;;;;;;21.63;4.13;;;;;;;;;;5048686;28;20247;-69
2022/02/17 04:16:27;;;;;;;17.80;4.03;;;;;;;;;;5051590;28;20264;-68
2022/02/17 04:18:52;;;;;;;19.23;4.07;;;;;;;;;;5051746;28;20177;-69
2022/02/17 04:21:19;;;;;;;21.17;3.60;;;;;;;;;;5048334;28;20189;-69
2022/02/17 04:23:44;;;;;;;14.57;4.13;;;;;;;;;;5051867;28;20213;-70
2022/02/17 04:26:13;;;;;;;16.47;5.30;;;;;;;;;;5033132;28;20177;-69
2022/02/17 04:28:39;;;;;;;13.50;3.27;;;;;;;;;;5047693;28;20194;-68
2022/02/17 04:31:06;;;;;;;15.93;4.63;;;;;;;;;;5036726;28;20180;-68
2022/02/17 04:33:31;;;;;;;15.07;3.63;;;;;;;;;;5047563;28;20939;-70
2022/02/17 04:35:57;;;;;;;16.23;3.60;;;;;;;;;;5050791;28;20180;-69
2022/02/17 04:38:22;;;;;;;19.63;4.57;;;;;;;;;;5049113;28;20205;-69
2022/02/17 04:43:31;;;;;;;24.93;5.30;;;;;;;;;;5051508;28;20204;-69
2022/02/17 04:45:56;;;;;;;23.83;5.90;;;;;;;;;;5051945;28;20560;-69
2022/02/17 04:48:21;;;;;;;18.30;4.57;;;;;;;;;;5050263;28;20295;-69
2022/02/17 04:50:46;;;;;;;13.57;5.03;;;;;;;;;;5049231;28;20573;-69
2022/02/17 04:53:12;;;;;;;22.37;6.10;;;;;;;;;;5051485;28;20205;-69
2022/02/17 04:55:37;;;;;;;22.63;4.73;;;;;;;;;;5047187;28;20193;-69
2022/02/17 04:58:03;;;;;;;24.53;5.13;;;;;;;;;;5052113;28;20173;-69
2022/02/17 05:00:28;;;;;;;31.30;6.30;;;;;;;;;;5051248;28;20643;-69
2022/02/17 05:02:53;;;;;;;17.67;5.70;;;;;;;;;;5048876;28;20297;-69
2022/02/17 05:05:18;;;;;;;24.97;5.73;;;;;;;;;;5050970;28;20260;-69
2022/02/17 05:07:43;;;;;;;24.53;5.20;;;;;;;;;;5049554;28;20292;-70
2022/02/17 05:10:09;;;;;;;23.33;4.97;;;;;;;;;;5051114;28;20170;-69
2022/02/17 05:12:34;;;;;;;28.00;5.90;;;;;;;;;;5051162;28;20232;-69
2022/02/17 05:14:59;;;;;;;23.63;5.90;;;;;;;;;;5051821;28;20177;-69
2022/02/17 05:17:24;;;;;;;29.57;5.37;;;;;;;;;;5050033;28;20635;-70
2022/02/17 05:19:50;;;;;;;24.87;6.33;;;;;;;;;;5049883;28;20181;-70
2022/02/17 05:22:15;;;;;;;22.97;4.83;;;;;;;;;;5050606;28;20225;-69
2022/02/17 05:24:40;;;;;;;28.43;6.60;;;;;;;;;;5050556;28;20421;-71
2022/02/17 05:27:05;;;;;;;22.27;4.73;;;;;;;;;;5050677;28;20201;-70
2022/02/17 05:29:30;;;;;;;25.33;6.70;;;;;;;;;;5051448;28;20227;-70
2022/02/17 05:31:55;;;;;;;29.33;6.03;;;;;;;;;;5044175;28;20252;-69
2022/02/17 05:34:21;;;;;;;17.60;4.50;;;;;;;;;;5035378;28;20209;-70
2022/02/17 05:36:46;;;;;;;17.37;4.60;;;;;;;;;;5050303;28;20235;-69
2022/02/17 05:39:11;;;;;;;13.13;4.50;;;;;;;;;;5052730;28;20259;-69
2022/02/17 05:41:36;;;;;;;19.50;4.57;;;;;;;;;;5052654;28;20642;-68
2022/02/17 05:44:01;;;;;;;16.77;3.53;;;;;;;;;;5049872;28;20616;-69
2022/02/17 05:46:27;;;;;;;24.23;4.30;;;;;;;;;;5050195;28;20220;-69
2022/02/17 05:48:52;;;;;;;15.80;4.30;;;;;;;;;;5050460;28;20284;-69
2022/02/17 05:51:18;;;;;;;15.70;3.50;;;;;;;;;;5049160;28;20639;-69
2022/02/17 05:53:43;;;;;;;13.53;3.27;;;;;;;;;;5049545;28;20204;-69
2022/02/17 05:56:09;;;;;;;12.23;2.97;;;;;;;;;;5049096;28;20182;-69
2022/02/17 05:58:34;;;;;;;12.20;3.30;;;;;;;;;;5050361;28;20650;-69
2022/02/17 06:00:59;;;;;;;11.30;2.63;;;;;;;;;;5050432;28;20186;-69
2022/02/17 06:03:24;;;;;;;10.63;3.10;;;;;;;;;;5049123;28;20205;-69
2022/02/17 06:05:49;;;;;;;18.93;2.90;;;;;;;;;;5047834;28;20207;-69
2022/02/17 06:08:15;;;;;;;14.50;3.50;;;;;;;;;;5046975;28;20213;-70
2022/02/17 06:10:43;;;;;;;24.63;4.20;;;;;;;;;;5047973;28;20174;-69
2022/02/17 06:13:08;;;;;;;21.43;4.50;;;;;;;;;;5049897;28;20225;-70
2022/02/17 06:15:33;;;;;;;23.27;4.50;;;;;;;;;;5049613;28;20201;-69
2022/02/17 06:17:58;;;;;;;18.03;4.67;;;;;;;;;;5049873;28;20185;-69
2022/02/17 06:20:23;;;;;;;19.50;4.10;;;;;;;;;;5049327;28;20614;-69
2022/02/17 06:22:49;;;;;;;19.27;4.33;;;;;;;;;;5050251;28;20205;-69
2022/02/17 06:25:15;;;;;;;20.50;5.43;;;;;;;;;;5048184;28;20209;-69
2022/02/17 06:27:40;;;;;;;15.23;4.40;;;;;;;;;;5049596;28;20209;-70
2022/02/17 06:30:06;;;;;;;12.73;3.43;;;;;;;;;;5049007;28;20681;-69
2022/02/17 06:32:31;;;;;;;14.73;3.57;;;;;;;;;;5047636;28;20216;-70
2022/02/17 06:34:57;;;;;;;14.40;3.33;;;;;;;;;;5045971;28;20804;-69
2022/02/17 06:37:22;;;;;;;14.70;3.13;;;;;;;;;;5037636;28;20174;-70
2022/02/17 06:39:47;;;;;;;16.30;4.70;;;;;;;;;;5033284;28;20166;-69
2022/02/17 06:42:12;;;;;;;12.80;3.37;;;;;;;;;;5047621;28;20185;-70
2022/02/17 06:44:37;;;;;;;13.10;3.30;;;;;;;;;;5049505;28;20176;-70
2022/02/17 06:47:03;;;;;;;14.00;4.07;;;;;;;;;;5048416;28;20181;-70
2022/02/17 06:49:29;;;;;;;11.80;2.63;;;;;;;;;;5048303;28;20730;-70
2022/02/17 06:51:54;;;;;;;12.60;3.03;;;;;;;;;;5048970;28;20178;-70
2022/02/17 06:54:19;;;;;;;20.90;5.10;;;;;;;;;;5048462;28;20204;-70
2022/02/17 06:56:45;;;;;;;19.37;3.57;;;;;;;;;;5049297;28;20177;-70
2022/02/17 06:59:10;;;;;;;12.97;3.40;;;;;;;;;;5047063;28;20196;-70
2022/02/17 07:01:35;;;;;;;12.63;3.30;;;;;;;;;;5048296;28;20197;-70
2022/02/17 07:04:00;;;;;;;11.33;2.17;;;;;;;;;;5048491;28;20227;-70
2022/02/17 07:06:25;;;;;;;8.50;3.47;;;;;;;;;;5048124;28;20185;-70
2022/02/17 07:08:51;;;;;;;15.57;3.03;;;;;;;;;;5046465;28;20663;-69
2022/02/17 07:11:16;;;;;;;13.90;2.50;;;;;;;;;;5048321;28;20177;-69
2022/02/17 07:13:42;;;;;;;6.77;2.33;;;;;;;;;;5046364;28;20238;-69
2022/02/17 07:16:07;;;;;;;8.73;1.87;;;;;;;;;;5051820;28;20651;-69
2022/02/17 07:18:32;;;;;;;9.13;1.97;;;;;;;;;;5052043;28;20181;-70
2022/02/17 07:20:58;;;;;;;7.87;2.40;;;;;;;;;;5051172;28;20185;-69
2022/02/17 07:23:24;;;;;;;12.43;2.63;;;;;;;;;;5053750;28;20659;-69
2022/02/17 07:25:50;;;;;;;9.33;2.10;;;;;;;;;;5052932;28;20181;-69
2022/02/17 07:28:15;;;;;;;7.63;1.77;;;;;;;;;;5031311;28;20213;-70
2022/02/17 07:30:41;;;;;;;7.53;1.93;;;;;;;;;;5054195;28;20253;-70
2022/02/17 07:33:07;;;;;;;7.87;2.73;;;;;;;;;;5053638;28;20239;-70
2022/02/17 07:35:33;;;;;;;8.97;1.90;;;;;;;;;;5055665;28;20170;-69
2022/02/17 07:37:59;;;;;;;11.87;2.57;;;;;;;;;;5043692;28;20213;-70
2022/02/17 07:40:24;;;;;;;10.77;2.73;;;;;;;;;;5047393;28;20201;-71
2022/02/17 07:42:49;;;;;;;15.10;2.60;;;;;;;;;;5051637;28;20674;-70
2022/02/17 07:45:14;;;;;;;12.23;2.33;;;;;;;;;;5044008;28;20185;-70
2022/02/17 07:47:48;;;;;;;10.57;3.03;;;;;;;;;;5048421;28;20189;-70
2022/02/17 07:50:17;;;;;;;16.13;2.80;;;;;;;;;;5052285;28;20166;-70
2022/02/17 07:52:43;;;;;;;14.93;2.53;;;;;;;;;;5051886;28;20240;-70
2022/02/17 07:55:08;;;;;;;12.23;2.50;;;;;;;;;;5052028;28;20174;-71
2022/02/17 07:57:33;;;;;;;16.80;2.90;;;;;;;;;;5053434;28;20184;-70
2022/02/17 07:59:58;;;;;;;12.30;3.47;;;;;;;;;;5054068;28;20175;-70
2022/02/17 08:02:24;;;;;;;10.90;3.17;;;;;;;;;;5049729;28;20193;-70
2022/02/17 08:04:49;;;;;;;9.10;1.73;;;;;;;;;;5054315;28;20170;-70
2022/02/17 08:07:14;;;;;;;14.83;2.80;;;;;;;;;;5049570;28;20174;-70
2022/02/17 08:09:39;;;;;;;11.77;2.17;;;;;;;;;;5052047;28;20244;-70
2022/02/17 08:12:04;;;;;;;8.37;1.80;;;;;;;;;;5049639;28;20185;-70
2022/02/17 08:14:30;;;;;;;10.63;1.73;;;;;;;;;;5048274;28;20292;-69
2022/02/17 08:16:55;;;;;;;7.83;2.53;;;;;;;;;;5051513;28;20177;-69
2022/02/17 08:19:20;;;;;;;9.00;2.10;;;;;;;;;;5053001;28;20896;-70
2022/02/17 08:21:45;;;;;;;8.10;2.73;;;;;;;;;;5050769;28;20257;-68
2022/02/17 08:24:11;;;;;;;5.73;2.07;;;;;;;;;;5077549;22;20258;-68
2022/02/17 08:26:37;;;;;;;13.13;2.20;;;;;;;;;;5071132;28;20504;-68
2022/02/17 08:29:02;;;;;;;14.17;2.47;;;;;;;;;;5071215;28;20742;-68
2022/02/17 08:31:28;;;;;;;13.30;2.50;;;;;;;;;;5053174;28;20192;-68
2022/02/17 08:33:54;;;;;;;7.87;1.70;;;;;;;;;;5072456;28;20193;-67
2022/02/17 08:36:19;;;;;;;22.33;2.43;;;;;;;;;;5052209;28;20177;-68
2022/02/17 08:38:44;;;;;;;10.60;1.97;;;;;;;;;;5073626;28;20184;-69
2022/02/17 08:41:10;;;;;;;11.13;2.93;;;;;;;;;;5059307;28;20211;-67
2022/02/17 08:43:35;;;;;;;6.83;1.63;;;;;;;;;;5070482;28;20204;-68
2022/02/17 08:46:01;;;;;;;7.50;1.57;;;;;;;;;;5070831;28;20181;-69
2022/02/17 08:48:26;;;;;;;9.93;1.73;;;;;;;;;;5067089;28;20230;-68
2022/02/17 08:50:52;;;;;;;5.57;1.77;;;;;;;;;;5071175;28;20181;-68
2022/02/17 08:53:17;;;;;;;8.43;1.73;;;;;;;;;;5071191;28;20224;-68
2022/02/17 08:55:42;;;;;;;7.37;1.70;;;;;;;;;;5070422;28;20322;-69
2022/02/17 08:58:07;;;;;;;6.47;1.70;;;;;;;;;;5072159;28;20184;-68
2022/02/17 09:00:33;;;;;;;8.87;2.33;;;;;;;;;;5069960;28;20216;-68
2022/02/17 09:02:59;;;;;;;6.10;1.50;;;;;;;;;;5066118;28;20606;-67
2022/02/17 09:05:24;;;;;;;5.77;1.40;;;;;;;;;;5068854;28;20173;-68
2022/02/17 09:07:50;;;;;;;4.17;1.60;;;;;;;;;;5072029;28;20308;-67
2022/02/17 09:10:15;;;;;;;6.67;1.23;;;;;;;;;;5070021;28;20180;-68
2022/02/17 09:12:41;;;;;;;8.23;2.37;;;;;;;;;;5048072;28;20690;-67
2022/02/17 09:15:06;;;;;;;7.27;1.70;;;;;;;;;;5050720;28;20280;-68
2022/02/17 09:17:32;;;;;;;5.83;1.37;;;;;;;;;;5070722;28;20550;-68
2022/02/17 09:19:57;;;;;;;5.43;1.40;;;;;;;;;;5074088;28;20172;-68
2022/02/17 09:22:22;;;;;;;5.97;1.87;;;;;;;;;;5085577;28;20670;-68
2022/02/17 09:24:48;;;;;;;8.97;2.07;;;;;;;;;;5081915;28;20180;-67
2022/02/17 09:27:14;;;;;;;7.90;3.23;;;;;;;;;;5073682;28;20188;-68
2022/02/17 09:29:40;;;;;;;5.30;2.17;;;;;;;;;;5067421;28;20216;-68
2022/02/17 09:32:06;;;;;;;8.43;1.90;;;;;;;;;;5071054;28;20705;-67
2022/02/17 09:34:31;;;;;;;6.03;1.33;;;;;;;;;;5070890;28;20283;-68
2022/02/17 09:36:56;;;;;;;8.27;1.87;;;;;;;;;;5069077;28;20503;-68
2022/02/17 09:39:21;;;;;;;9.60;2.20;;;;;;;;;;5068495;28;20564;-69
2022/02/17 09:41:47;;;;;;;8.77;1.77;;;;;;;;;;5067087;28;20271;-67
2022/02/17 09:44:12;;;;;;;8.80;1.80;;;;;;;;;;5067558;28;20404;-68
2022/02/17 09:46:45;;;;;;;9.87;3.33;;;;;;;;;;5068901;28;20193;-68
2022/02/17 09:49:13;;;;;;;7.30;1.90;;;;;;;;;;5067301;28;20200;-68
2022/02/17 09:51:39;;;;;;;8.57;1.53;;;;;;;;;;5069731;28;20177;-67
2022/02/17 09:54:04;;;;;;;7.03;1.60;;;;;;;;;;5069575;28;20219;-67
2022/02/17 09:56:29;;;;;;;7.20;1.70;;;;;;;;;;5068103;28;20630;-68
2022/02/17 09:58:55;;;;;;;9.40;1.67;;;;;;;;;;5069285;28;20181;-68
2022/02/17 10:01:27;;;;;;;7.83;1.70;;;;;;;;;;5067734;28;20650;-68
2022/02/17 10:04:14;;;;;;;5.73;1.47;;;;;;;;;;5069772;28;20283;-67
2022/02/17 10:06:40;;;;;;;8.10;1.57;;;;;;;;;;5045321;28;20185;-67
2022/02/17 10:09:06;;;;;;;6.03;1.20;;;;;;;;;;5067474;28;20219;-69
2022/02/17 10:11:31;;;;;;;7.03;1.70;;;;;;;;;;5066113;28;20185;-67
2022/02/17 10:13:59;;;;;;;12.60;2.10;;;;;;;;;;5067821;28;20193;-68
2022/02/17 10:16:24;;;;;;;5.10;1.40;;;;;;;;;;5069373;28;20255;-68
2022/02/17 10:18:49;;;;;;;8.53;1.83;;;;;;;;;;5069497;28;20177;-67
2022/02/17 10:21:15;;;;;;;8.10;1.90;;;;;;;;;;5068767;28;20212;-67
2022/02/17 10:23:42;;;;;;;8.97;1.80;;;;;;;;;;5068201;28;20217;-68
2022/02/17 10:26:28;;;;;;;5.90;1.73;;;;;;;;;;5069138;28;20195;-67
2022/02/17 10:28:55;;;;;;;12.07;2.70;;;;;;;;;;5068418;28;20204;-68
2022/02/17 10:31:22;;;;;;;10.60;2.90;;;;;;;;;;5069922;28;20173;-67
2022/02/17 10:33:52;;;;;;;4.13;1.40;;;;;;;;;;5067234;28;20212;-68
2022/02/17 10:36:30;;;;;;;10.77;3.27;;;;;;;;;;5067876;28;20286;-68
2022/02/17 10:39:07;;;;;;;7.50;1.77;;;;;;;;;;5068468;28;20257;-68
2022/02/17 10:41:52;;;;;;;5.53;1.43;;;;;;;;;;5059938;28;20180;-68
2022/02/17 10:44:18;;;;;;;6.07;1.80;;;;;;;;;;5049902;28;20215;-67
2022/02/17 10:46:43;;;;;;;9.87;2.40;;;;;;;;;;5062768;28;20181;-68
2022/02/17 10:49:13;;;;;;;7.83;1.50;;;;;;;;;;5066959;28;20200;-68
2022/02/17 10:51:38;;;;;;;6.00;2.03;;;;;;;;;;5062140;28;20173;-68
2022/02/17 10:54:03;;;;;;;8.73;1.53;;;;;;;;;;5062715;28;20204;-68
2022/02/17 10:56:32;;;;;;;3.90;1.23;;;;;;;;;;5069796;28;20165;-68
2022/02/17 10:59:05;;;;;;;11.02;2.38;;;;;;;;;;5067838;28;20192;-69
2022/02/17 11:01:30;;;;;;;6.78;1.60;;;;;;;;;;5062920;28;20272;-68
2022/02/17 11:03:56;;;;;;;5.47;1.35;;;;;;;;;;5063627;28;20644;-68
2022/02/17 11:06:21;;;;;;;5.20;1.10;;;;;;;;;;5049102;28;20185;-68
2022/02/17 11:08:48;;;;;;;5.15;1.20;;;;;;;;;;5065190;28;20675;-69
2022/02/17 11:11:14;;;;;;;7.07;1.53;;;;;;;;;;5050683;28;20181;-68
2022/02/17 11:13:42;;;;;;;7.10;1.52;;;;;;;;;;5048638;28;20197;-68
2022/02/17 11:16:09;;;;;;;4.63;1.35;;;;;;;;;;5068464;28;20188;-67
2022/02/17 11:18:35;;;;;;;8.30;1.55;;;;;;;;;;5062564;28;20195;-68
2022/02/17 11:21:00;;;;;;;6.85;1.67;;;;;;;;;;5048751;28;20603;-68
2022/02/17 11:23:36;;;;;;;8.97;1.97;;;;;;;;;;5068460;28;20216;-68
2022/02/17 11:26:02;;;;;;;9.55;1.63;;;;;;;;;;5065543;28;20208;-68
2022/02/17 11:28:32;;;;;;;9.33;1.60;;;;;;;;;;5063840;28;20258;-68
2022/02/17 11:31:03;;;;;;;5.90;1.67;;;;;;;;;;5064027;28;20176;-67
2022/02/17 11:33:29;;;;;;;6.87;2.00;;;;;;;;;;5066988;28;20193;-68
2022/02/17 11:36:19;;;;;;;6.93;1.07;;;;;;;;;;5070845;28;20203;-69
2022/02/17 11:38:51;;;;;;;5.80;1.40;;;;;;;;;;5066076;28;20332;-68
2022/02/17 11:41:17;;;;;;;7.20;1.83;;;;;;;;;;5064167;28;20189;-67
2022/02/17 11:43:44;;;;;;;13.87;1.93;;;;;;;;;;5068699;28;20553;-68
2022/02/17 11:46:10;;;;;;;7.03;1.60;;;;;;;;;;5057797;28;20181;-66
2022/02/17 11:48:37;;;;;;;12.27;2.75;;;;;;;;;;5060424;28;20216;-68
2022/02/17 11:51:16;;;;;;;25.25;1.92;;;;;;;;;;5068741;28;20687;-69
2022/02/17 11:53:42;;;;;;;5.05;1.48;;;;;;;;;;5068432;28;20197;-68
2022/02/17 11:56:14;;;;;;;6.72;1.70;;;;;;;;;;5069449;28;20548;-67
2022/02/17 11:58:39;;;;;;;8.00;1.30;;;;;;;;;;5062953;28;20186;-67
2022/02/17 12:04:01;;;;;;;7.47;1.47;;;;;;;;;;5070342;28;20792;-68
2022/02/17 12:06:41;;;;;;;7.60;1.70;;;;;;;;;;5068460;28;20177;-67
2022/02/17 12:09:10;;;;;;;11.40;2.03;;;;;;;;;;5086175;28;20207;-67
2022/02/17 12:11:41;;;;;;;9.47;2.47;;;;;;;;;;5074918;28;20598;-67
2022/02/17 12:14:07;;;;;;;4.90;1.20;;;;;;;;;;5065198;28;20197;-67
2022/02/17 12:16:37;;;;;;;11.90;2.27;;;;;;;;;;5069838;28;20230;-68
2022/02/17 12:19:08;;;;;;;8.43;2.03;;;;;;;;;;5072374;28;20243;-68
2022/02/17 12:21:35;;;;;;;12.63;1.90;;;;;;;;;;5070516;28;20253;-68
2022/02/17 12:24:01;;;;;;;7.70;1.60;;;;;;;;;;5072376;28;20709;-67
2022/02/17 12:26:39;;;;;;;11.00;2.23;;;;;;;;;;5072292;28;20181;-67
2022/02/17 12:29:18;;;;;;;10.07;2.87;;;;;;;;;;5066311;28;20228;-68
2022/02/17 12:31:43;;;;;;;7.53;1.40;;;;;;;;;;5064513;28;20184;-68
2022/02/17 12:34:08;;;;;;;4.33;1.63;;;;;;;;;;5072140;28;20707;-67
2022/02/17 12:36:34;;;;;;;12.80;2.80;;;;;;;;;;5066187;28;20230;-67
2022/02/17 12:39:03;;;;;;;4.57;1.37;;;;;;;;;;5066012;28;20249;-67
2022/02/17 12:41:28;;;;;;;6.93;1.53;;;;;;;;;;5068446;28;20181;-66
2022/02/17 12:43:53;;;;;;;7.50;1.53;;;;;;;;;;5067617;28;20261;-66
2022/02/17 12:46:19;;;;;;;8.00;2.00;;;;;;;;;;5069519;28;20658;-67
2022/02/17 12:48:44;;;;;;;6.83;2.50;;;;;;;;;;5057051;28;21697;-67
2022/02/17 12:51:21;;;;;;;11.93;2.47;;;;;;;;;;5064254;28;20658;-67
2022/02/17 12:53:54;;;;;;;12.48;2.13;;;;;;;;;;5067730;28;20189;-66
2022/02/17 12:56:23;;;;;;;11.25;2.58;;;;;;;;;;5063889;28;20642;-67
2022/02/17 12:58:49;;;;;;;13.95;3.28;;;;;;;;;;5071538;28;20169;-68
2022/02/17 13:01:27;;;;;;;12.65;2.65;;;;;;;;;;5066874;28;20245;-67
2022/02/17 13:03:53;;;;;;;9.40;2.10;;;;;;;;;;5070657;28;20216;-66
2022/02/17 13:06:22;;;;;;;7.97;2.05;;;;;;;;;;5066602;28;20237;-67
2022/02/17 13:08:51;;;;;;;8.70;2.47;;;;;;;;;;5048886;28;20639;-68
2022/02/17 13:11:18;;;;;;;15.18;2.50;;;;;;;;;;5069001;28;20627;-68
2022/02/17 13:13:44;;;;;;;6.73;1.90;;;;;;;;;;5067568;28;20204;-67
2022/02/17 13:16:11;;;;;;;10.67;1.90;;;;;;;;;;5066725;28;20173;-67
2022/02/17 13:18:38;;;;;;;7.30;2.20;;;;;;;;;;5071061;28;20184;-67
2022/02/17 13:21:17;;;;;;;9.43;2.73;;;;;;;;;;5067849;28;20184;-67
2022/02/17 13:23:43;;;;;;;10.87;1.97;;;;;;;;;;5068926;28;20212;-67
2022/02/17 13:26:30;;;;;;;11.23;2.20;;;;;;;;;;5067735;28;20180;-67
2022/02/17 13:28:56;;;;;;;17.70;2.47;;;;;;;;;;5062888;28;20275;-68
2022/02/17 13:31:22;;;;;;;11.50;2.93;;;;;;;;;;5063502;28;20398;-67
2022/02/17 13:33:47;;;;;;;7.83;2.00;;;;;;;;;;5068276;28;20216;-67
2022/02/17 13:36:25;;;;;;;7.30;1.67;;;;;;;;;;5071858;28;20690;-67
2022/02/17 13:39:04;;;;;;;10.02;1.85;;;;;;;;;;5065224;28;20260;-68
2022/02/17 13:41:29;;;;;;;6.72;1.83;;;;;;;;;;5066455;28;20279;-66
2022/02/17 13:43:57;;;;;;;4.43;1.73;;;;;;;;;;5062780;28;20692;-67
2022/02/17 13:46:23;;;;;;;4.60;1.53;;;;;;;;;;5066210;28;20547;-67
2022/02/17 13:48:48;;;;;;;9.30;2.20;;;;;;;;;;5067509;28;20200;-68
2022/02/17 13:51:14;;;;;;;6.80;1.67;;;;;;;;;;5076573;28;20175;-67
2022/02/17 13:53:41;;;;;;;8.53;1.87;;;;;;;;;;5069414;28;20664;-68
2022/02/17 13:56:07;;;;;;;10.47;1.97;;;;;;;;;;5070097;28;20252;-66
2022/02/17 13:58:33;;;;;;;8.07;1.70;;;;;;;;;;5070341;28;20632;-68
2022/02/17 14:00:58;;;;;;;6.83;2.07;;;;;;;;;;5066298;28;20204;-67
2022/02/17 14:03:24;;;;;;;6.27;1.63;;;;;;;;;;5060005;28;20200;-67
2022/02/17 14:05:50;;;;;;;7.33;1.63;;;;;;;;;;5065034;28;20173;-66
2022/02/17 14:08:15;;;;;;;6.77;1.67;;;;;;;;;;5070573;28;20662;-67
2022/02/17 14:10:40;;;;;;;4.90;1.20;;;;;;;;;;5063983;28;20580;-67
2022/02/17 14:13:06;;;;;;;4.83;1.27;;;;;;;;;;5069779;28;20221;-65
2022/02/17 14:15:32;;;;;;;4.07;0.90;;;;;;;;;;5070059;28;20824;-68
2022/02/17 14:17:57;;;;;;;2.33;0.90;;;;;;;;;;5064118;28;20672;-67
2022/02/17 14:20:22;;;;;;;5.77;1.70;;;;;;;;;;5066777;28;20185;-66
2022/02/17 14:22:48;;;;;;;5.13;1.00;;;;;;;;;;5080847;22;20203;-70
2022/02/17 14:25:13;;;;;;;5.23;0.80;;;;;;;;;;5065190;28;20264;-71
2022/02/17 14:27:38;;;;;;;3.20;0.90;;;;;;;;;;5067007;28;20176;-70
2022/02/17 14:30:04;;;;;;;3.43;1.17;;;;;;;;;;5055051;28;20184;-70
2022/02/17 14:32:29;;;;;;;8.13;0.93;;;;;;;;;;5074905;28;20204;-70
2022/02/17 14:35:09;;;;;;;5.03;1.10;;;;;;;;;;5071893;28;20177;-70
2022/02/17 14:37:34;;;;;;;4.40;2.10;;;;;;;;;;5068567;28;20786;-70